sensor_id;sensor_type;location;lat;lon;timestamp;P1;durP1;ratioP1;P2;durP2;ratioP2
16792;SDS011;8513;42.662;23.350;2024-01-10T00:01:16;5.37;;;3.13;;
16792;SDS011;8513;42.662;23.350;2024-01-10T00:03:41;4.23;;;3.07;;
16792;SDS011;8513;42.662;23.350;2024-01-10T00:06:07;3.87;;;3.00;;
16792;SDS011;8513;42.662;23.350;2024-01-10T00:08:33;4.33;;;3.00;;
16792;SDS011;8513;42.662;23.350;2024-01-10T00:10:58;4.17;;;2.97;;
16792;SDS011;8513;42.662;23.350;2024-01-10T00:13:35;5.00;;;2.80;;
16792;SDS011;8513;42.662;23.350;2024-01-10T00:16:01;3.77;;;3.10;;
16792;SDS011;8513;42.662;23.350;2024-01-10T00:18:26;4.07;;;2.93;;
16792;SDS011;8513;42.662;23.350;2024-01-10T00:20:52;2.97;;;2.50;;
16792;SDS011;8513;42.662;23.350;2024-01-10T00:23:20;4.73;;;2.93;;
16792;SDS011;8513;42.662;23.350;2024-01-10T00:25:46;5.03;;;3.20;;
16792;SDS011;8513;42.662;23.350;2024-01-10T00:28:12;3.07;;;2.70;;
16792;SDS011;8513;42.662;23.350;2024-01-10T00:30:37;4.27;;;3.03;;
16792;SDS011;8513;42.662;23.350;2024-01-10T00:33:03;3.87;;;3.03;;
16792;SDS011;8513;42.662;23.350;2024-01-10T00:35:29;3.70;;;3.07;;
16792;SDS011;8513;42.662;23.350;2024-01-10T00:37:54;3.70;;;2.90;;
16792;SDS011;8513;42.662;23.350;2024-01-10T00:40:20;4.73;;;3.07;;
16792;SDS011;8513;42.662;23.350;2024-01-10T00:42:45;3.53;;;2.93;;
16792;SDS011;8513;42.662;23.350;2024-01-10T00:45:12;3.73;;;2.83;;
16792;SDS011;8513;42.662;23.350;2024-01-10T00:47:38;5.27;;;3.13;;
16792;SDS011;8513;42.662;23.350;2024-01-10T00:50:03;3.67;;;3.10;;
16792;SDS011;8513;42.662;23.350;2024-01-10T00:52:29;3.00;;;2.70;;
16792;SDS011;8513;42.662;23.350;2024-01-10T00:54:54;4.20;;;2.73;;
16792;SDS011;8513;42.662;23.350;2024-01-10T00:57:20;4.20;;;2.83;;
16792;SDS011;8513;42.662;23.350;2024-01-10T00:59:55;3.60;;;3.23;;
16792;SDS011;8513;42.662;23.350;2024-01-10T01:02:21;2.93;;;2.63;;
16792;SDS011;8513;42.662;23.350;2024-01-10T01:04:46;4.47;;;3.37;;
16792;SDS011;8513;42.662;23.350;2024-01-10T01:07:12;3.77;;;3.10;;
16792;SDS011;8513;42.662;23.350;2024-01-10T01:09:37;4.17;;;2.77;;
16792;SDS011;8513;42.662;23.350;2024-01-10T01:12:02;4.43;;;2.80;;
16792;SDS011;8513;42.662;23.350;2024-01-10T01:14:28;3.20;;;2.90;;
16792;SDS011;8513;42.662;23.350;2024-01-10T01:16:54;4.93;;;3.00;;
16792;SDS011;8513;42.662;23.350;2024-01-10T01:19:19;4.30;;;2.83;;
16792;SDS011;8513;42.662;23.350;2024-01-10T01:21:45;3.27;;;2.70;;
16792;SDS011;8513;42.662;23.350;2024-01-10T01:24:10;4.50;;;3.37;;
16792;SDS011;8513;42.662;23.350;2024-01-10T01:26:36;3.93;;;2.90;;
16792;SDS011;8513;42.662;23.350;2024-01-10T01:29:01;3.97;;;3.03;;
16792;SDS011;8513;42.662;23.350;2024-01-10T01:31:27;4.70;;;3.10;;
16792;SDS011;8513;42.662;23.350;2024-01-10T01:33:52;2.93;;;2.60;;
16792;SDS011;8513;42.662;23.350;2024-01-10T01:36:17;3.93;;;2.90;;
16792;SDS011;8513;42.662;23.350;2024-01-10T01:38:43;3.37;;;2.97;;
16792;SDS011;8513;42.662;23.350;2024-01-10T01:41:09;5.30;;;3.30;;
16792;SDS011;8513;42.662;23.350;2024-01-10T01:43:34;4.03;;;3.30;;
16792;SDS011;8513;42.662;23.350;2024-01-10T01:46:15;6.13;;;3.07;;
16792;SDS011;8513;42.662;23.350;2024-01-10T01:48:41;4.27;;;3.13;;
16792;SDS011;8513;42.662;23.350;2024-01-10T01:51:07;4.90;;;3.40;;
16792;SDS011;8513;42.662;23.350;2024-01-10T01:53:34;3.57;;;3.13;;
16792;SDS011;8513;42.662;23.350;2024-01-10T01:56:02;4.60;;;3.50;;
16792;SDS011;8513;42.662;23.350;2024-01-10T01:58:30;4.53;;;3.73;;
16792;SDS011;8513;42.662;23.350;2024-01-10T02:00:56;4.47;;;3.67;;
16792;SDS011;8513;42.662;23.350;2024-01-10T02:03:22;4.87;;;3.40;;
16792;SDS011;8513;42.662;23.350;2024-01-10T02:05:47;3.50;;;3.20;;
16792;SDS011;8513;42.662;23.350;2024-01-10T02:08:13;4.20;;;3.80;;
16792;SDS011;8513;42.662;23.350;2024-01-10T02:10:38;5.27;;;3.63;;
16792;SDS011;8513;42.662;23.350;2024-01-10T02:13:05;4.77;;;3.67;;
16792;SDS011;8513;42.662;23.350;2024-01-10T02:15:31;4.17;;;3.60;;
16792;SDS011;8513;42.662;23.350;2024-01-10T02:17:56;4.33;;;3.77;;
16792;SDS011;8513;42.662;23.350;2024-01-10T02:20:22;5.20;;;3.97;;
16792;SDS011;8513;42.662;23.350;2024-01-10T02:22:47;7.17;;;3.43;;
16792;SDS011;8513;42.662;23.350;2024-01-10T02:25:15;5.40;;;3.50;;
16792;SDS011;8513;42.662;23.350;2024-01-10T02:27:40;4.23;;;3.53;;
16792;SDS011;8513;42.662;23.350;2024-01-10T02:30:06;6.27;;;3.77;;
16792;SDS011;8513;42.662;23.350;2024-01-10T02:32:34;3.93;;;3.53;;
16792;SDS011;8513;42.662;23.350;2024-01-10T02:35:00;4.70;;;4.20;;
16792;SDS011;8513;42.662;23.350;2024-01-10T02:37:26;4.80;;;4.03;;
16792;SDS011;8513;42.662;23.350;2024-01-10T02:39:51;4.43;;;3.93;;
16792;SDS011;8513;42.662;23.350;2024-01-10T02:42:17;7.00;;;4.10;;
16792;SDS011;8513;42.662;23.350;2024-01-10T02:44:42;4.70;;;4.20;;
16792;SDS011;8513;42.662;23.350;2024-01-10T02:47:08;5.07;;;4.57;;
16792;SDS011;8513;42.662;23.350;2024-01-10T02:49:34;6.57;;;4.43;;
16792;SDS011;8513;42.662;23.350;2024-01-10T02:51:59;8.10;;;5.00;;
16792;SDS011;8513;42.662;23.350;2024-01-10T02:54:25;5.20;;;4.70;;
16792;SDS011;8513;42.662;23.350;2024-01-10T02:56:51;6.17;;;5.13;;
16792;SDS011;8513;42.662;23.350;2024-01-10T02:59:16;5.90;;;4.77;;
16792;SDS011;8513;42.662;23.350;2024-01-10T03:01:42;5.57;;;4.87;;
16792;SDS011;8513;42.662;23.350;2024-01-10T03:04:07;6.77;;;5.17;;
16792;SDS011;8513;42.662;23.350;2024-01-10T03:06:33;6.03;;;4.80;;
16792;SDS011;8513;42.662;23.350;2024-01-10T03:08:58;7.00;;;5.43;;
16792;SDS011;8513;42.662;23.350;2024-01-10T03:11:23;6.37;;;4.67;;
16792;SDS011;8513;42.662;23.350;2024-01-10T03:13:50;6.80;;;4.53;;
16792;SDS011;8513;42.662;23.350;2024-01-10T03:16:17;6.27;;;4.73;;
16792;SDS011;8513;42.662;23.350;2024-01-10T03:18:48;5.30;;;4.30;;
16792;SDS011;8513;42.662;23.350;2024-01-10T03:21:14;7.67;;;4.60;;
16792;SDS011;8513;42.662;23.350;2024-01-10T03:23:39;8.40;;;5.87;;
16792;SDS011;8513;42.662;23.350;2024-01-10T03:26:05;10.80;;;6.13;;
16792;SDS011;8513;42.662;23.350;2024-01-10T03:28:30;10.33;;;6.27;;
16792;SDS011;8513;42.662;23.350;2024-01-10T03:30:55;8.73;;;6.40;;
16792;SDS011;8513;42.662;23.350;2024-01-10T03:33:21;7.03;;;5.10;;
16792;SDS011;8513;42.662;23.350;2024-01-10T03:35:46;7.33;;;4.53;;
16792;SDS011;8513;42.662;23.350;2024-01-10T03:38:11;6.23;;;4.50;;
16792;SDS011;8513;42.662;23.350;2024-01-10T03:40:37;7.60;;;4.47;;
16792;SDS011;8513;42.662;23.350;2024-01-10T03:43:02;4.90;;;3.67;;
16792;SDS011;8513;42.662;23.350;2024-01-10T03:45:28;6.50;;;4.00;;
16792;SDS011;8513;42.662;23.350;2024-01-10T03:47:54;5.37;;;3.63;;
16792;SDS011;8513;42.662;23.350;2024-01-10T03:50:20;6.27;;;4.13;;
16792;SDS011;8513;42.662;23.350;2024-01-10T03:52:46;4.93;;;3.63;;
16792;SDS011;8513;42.662;23.350;2024-01-10T03:55:12;6.03;;;4.00;;
16792;SDS011;8513;42.662;23.350;2024-01-10T03:57:41;5.47;;;3.73;;
16792;SDS011;8513;42.662;23.350;2024-01-10T04:00:10;4.73;;;4.07;;
16792;SDS011;8513;42.662;23.350;2024-01-10T04:02:37;6.13;;;3.83;;
16792;SDS011;8513;42.662;23.350;2024-01-10T04:05:08;4.63;;;3.57;;
16792;SDS011;8513;42.662;23.350;2024-01-10T04:07:41;5.70;;;3.53;;
16792;SDS011;8513;42.662;23.350;2024-01-10T04:10:07;4.60;;;3.67;;
16792;SDS011;8513;42.662;23.350;2024-01-10T04:12:35;4.40;;;3.17;;
16792;SDS011;8513;42.662;23.350;2024-01-10T04:15:02;5.50;;;3.80;;
16792;SDS011;8513;42.662;23.350;2024-01-10T04:17:29;5.20;;;3.50;;
16792;SDS011;8513;42.662;23.350;2024-01-10T04:19:54;5.40;;;3.50;;
16792;SDS011;8513;42.662;23.350;2024-01-10T04:22:20;4.53;;;3.23;;
16792;SDS011;8513;42.662;23.350;2024-01-10T04:24:45;4.87;;;3.40;;
16792;SDS011;8513;42.662;23.350;2024-01-10T04:27:11;6.87;;;3.57;;
16792;SDS011;8513;42.662;23.350;2024-01-10T04:29:36;5.57;;;3.30;;
16792;SDS011;8513;42.662;23.350;2024-01-10T04:32:02;5.77;;;3.70;;
16792;SDS011;8513;42.662;23.350;2024-01-10T04:34:28;6.57;;;3.93;;
16792;SDS011;8513;42.662;23.350;2024-01-10T04:36:54;6.53;;;3.63;;
16792;SDS011;8513;42.662;23.350;2024-01-10T04:39:19;6.43;;;3.37;;
16792;SDS011;8513;42.662;23.350;2024-01-10T04:41:45;5.43;;;3.67;;
16792;SDS011;8513;42.662;23.350;2024-01-10T04:44:10;5.43;;;4.07;;
16792;SDS011;8513;42.662;23.350;2024-01-10T04:49:06;6.20;;;3.57;;
16792;SDS011;8513;42.662;23.350;2024-01-10T04:51:32;5.30;;;3.23;;
16792;SDS011;8513;42.662;23.350;2024-01-10T04:53:57;6.53;;;3.30;;
16792;SDS011;8513;42.662;23.350;2024-01-10T04:56:25;4.10;;;3.33;;
16792;SDS011;8513;42.662;23.350;2024-01-10T04:58:51;6.07;;;4.00;;
16792;SDS011;8513;42.662;23.350;2024-01-10T05:01:16;7.23;;;4.50;;
16792;SDS011;8513;42.662;23.350;2024-01-10T05:03:42;5.20;;;4.33;;
16792;SDS011;8513;42.662;23.350;2024-01-10T05:06:07;5.30;;;4.07;;
16792;SDS011;8513;42.662;23.350;2024-01-10T05:08:33;6.20;;;4.53;;
16792;SDS011;8513;42.662;23.350;2024-01-10T05:10:58;5.13;;;4.23;;
16792;SDS011;8513;42.662;23.350;2024-01-10T05:13:24;6.00;;;4.43;;
16792;SDS011;8513;42.662;23.350;2024-01-10T05:15:49;4.93;;;3.97;;
16792;SDS011;8513;42.662;23.350;2024-01-10T05:18:15;7.47;;;4.00;;
16792;SDS011;8513;42.662;23.350;2024-01-10T05:20:41;5.77;;;4.23;;
16792;SDS011;8513;42.662;23.350;2024-01-10T05:23:06;5.90;;;3.80;;
16792;SDS011;8513;42.662;23.350;2024-01-10T05:25:32;5.10;;;4.03;;
16792;SDS011;8513;42.662;23.350;2024-01-10T05:27:59;8.17;;;4.10;;
16792;SDS011;8513;42.662;23.350;2024-01-10T05:30:25;4.70;;;3.93;;
16792;SDS011;8513;42.662;23.350;2024-01-10T05:32:50;5.37;;;3.93;;
16792;SDS011;8513;42.662;23.350;2024-01-10T05:35:16;4.73;;;3.80;;
16792;SDS011;8513;42.662;23.350;2024-01-10T05:37:41;5.83;;;3.50;;
16792;SDS011;8513;42.662;23.350;2024-01-10T05:40:07;6.43;;;4.00;;
16792;SDS011;8513;42.662;23.350;2024-01-10T05:42:32;6.33;;;4.20;;
16792;SDS011;8513;42.662;23.350;2024-01-10T05:44:59;5.60;;;4.43;;
16792;SDS011;8513;42.662;23.350;2024-01-10T05:47:25;4.60;;;3.87;;
16792;SDS011;8513;42.662;23.350;2024-01-10T05:49:51;7.43;;;4.17;;
16792;SDS011;8513;42.662;23.350;2024-01-10T05:52:18;5.70;;;4.10;;
16792;SDS011;8513;42.662;23.350;2024-01-10T05:54:43;4.50;;;3.80;;
16792;SDS011;8513;42.662;23.350;2024-01-10T05:57:09;7.80;;;5.23;;
16792;SDS011;8513;42.662;23.350;2024-01-10T05:59:34;6.47;;;4.00;;
16792;SDS011;8513;42.662;23.350;2024-01-10T06:02:00;5.10;;;3.90;;
16792;SDS011;8513;42.662;23.350;2024-01-10T06:04:27;5.83;;;4.50;;
16792;SDS011;8513;42.662;23.350;2024-01-10T06:06:55;5.47;;;4.27;;
16792;SDS011;8513;42.662;23.350;2024-01-10T06:09:22;5.77;;;4.53;;
16792;SDS011;8513;42.662;23.350;2024-01-10T06:11:48;9.00;;;4.47;;
16792;SDS011;8513;42.662;23.350;2024-01-10T06:14:14;5.80;;;4.50;;
16792;SDS011;8513;42.662;23.350;2024-01-10T06:16:39;5.87;;;4.70;;
16792;SDS011;8513;42.662;23.350;2024-01-10T06:19:05;5.07;;;4.53;;
16792;SDS011;8513;42.662;23.350;2024-01-10T06:21:31;5.33;;;4.00;;
16792;SDS011;8513;42.662;23.350;2024-01-10T06:23:57;6.10;;;5.30;;
16792;SDS011;8513;42.662;23.350;2024-01-10T06:26:22;5.93;;;4.00;;
16792;SDS011;8513;42.662;23.350;2024-01-10T06:28:48;6.53;;;4.73;;
16792;SDS011;8513;42.662;23.350;2024-01-10T06:31:13;5.83;;;4.37;;
16792;SDS011;8513;42.662;23.350;2024-01-10T06:33:39;7.10;;;4.03;;
16792;SDS011;8513;42.662;23.350;2024-01-10T06:36:04;5.43;;;3.83;;
16792;SDS011;8513;42.662;23.350;2024-01-10T06:38:30;5.57;;;3.77;;
16792;SDS011;8513;42.662;23.350;2024-01-10T06:40:56;5.57;;;3.60;;
16792;SDS011;8513;42.662;23.350;2024-01-10T06:43:21;5.53;;;3.83;;
16792;SDS011;8513;42.662;23.350;2024-01-10T06:45:47;7.73;;;4.37;;
16792;SDS011;8513;42.662;23.350;2024-01-10T06:48:13;4.40;;;3.67;;
16792;SDS011;8513;42.662;23.350;2024-01-10T06:50:39;3.90;;;3.30;;
16792;SDS011;8513;42.662;23.350;2024-01-10T06:53:05;5.20;;;3.30;;
16792;SDS011;8513;42.662;23.350;2024-01-10T06:58:24;11.00;;;3.97;;
16792;SDS011;8513;42.662;23.350;2024-01-10T07:00:49;4.93;;;3.53;;
16792;SDS011;8513;42.662;23.350;2024-01-10T07:03:15;5.80;;;3.23;;
16792;SDS011;8513;42.662;23.350;2024-01-10T07:05:41;4.73;;;3.20;;
16792;SDS011;8513;42.662;23.350;2024-01-10T07:08:06;4.67;;;3.50;;
16792;SDS011;8513;42.662;23.350;2024-01-10T07:10:31;5.53;;;4.13;;
16792;SDS011;8513;42.662;23.350;2024-01-10T07:12:57;3.93;;;3.10;;
16792;SDS011;8513;42.662;23.350;2024-01-10T07:15:22;4.93;;;3.40;;
16792;SDS011;8513;42.662;23.350;2024-01-10T07:17:48;3.93;;;2.80;;
16792;SDS011;8513;42.662;23.350;2024-01-10T07:20:14;3.90;;;2.80;;
16792;SDS011;8513;42.662;23.350;2024-01-10T07:22:39;4.43;;;3.37;;
16792;SDS011;8513;42.662;23.350;2024-01-10T07:25:09;4.87;;;3.33;;
16792;SDS011;8513;42.662;23.350;2024-01-10T07:27:39;5.00;;;3.60;;
16792;SDS011;8513;42.662;23.350;2024-01-10T07:30:05;4.87;;;3.73;;
16792;SDS011;8513;42.662;23.350;2024-01-10T07:32:45;7.80;;;4.13;;
16792;SDS011;8513;42.662;23.350;2024-01-10T07:35:11;7.57;;;4.10;;
16792;SDS011;8513;42.662;23.350;2024-01-10T07:37:39;9.57;;;4.40;;
16792;SDS011;8513;42.662;23.350;2024-01-10T07:42:35;8.00;;;5.00;;
16792;SDS011;8513;42.662;23.350;2024-01-10T07:45:02;11.67;;;4.80;;
16792;SDS011;8513;42.662;23.350;2024-01-10T07:47:32;5.73;;;4.47;;
16792;SDS011;8513;42.662;23.350;2024-01-10T07:50:05;8.10;;;4.17;;
16792;SDS011;8513;42.662;23.350;2024-01-10T07:52:31;7.47;;;4.20;;
16792;SDS011;8513;42.662;23.350;2024-01-10T07:54:57;8.17;;;4.03;;
16792;SDS011;8513;42.662;23.350;2024-01-10T07:57:23;8.03;;;4.47;;
16792;SDS011;8513;42.662;23.350;2024-01-10T07:59:48;7.30;;;3.67;;
16792;SDS011;8513;42.662;23.350;2024-01-10T08:02:14;7.93;;;4.40;;
16792;SDS011;8513;42.662;23.350;2024-01-10T08:04:39;6.40;;;4.13;;
16792;SDS011;8513;42.662;23.350;2024-01-10T08:07:05;4.93;;;3.50;;
16792;SDS011;8513;42.662;23.350;2024-01-10T08:09:30;4.77;;;3.13;;
16792;SDS011;8513;42.662;23.350;2024-01-10T08:11:55;6.63;;;3.30;;
16792;SDS011;8513;42.662;23.350;2024-01-10T08:14:21;5.57;;;3.27;;
16792;SDS011;8513;42.662;23.350;2024-01-10T08:16:46;8.23;;;3.60;;
16792;SDS011;8513;42.662;23.350;2024-01-10T08:19:12;7.17;;;3.07;;
16792;SDS011;8513;42.662;23.350;2024-01-10T08:21:37;7.40;;;2.90;;
16792;SDS011;8513;42.662;23.350;2024-01-10T08:24:10;4.27;;;2.80;;
16792;SDS011;8513;42.662;23.350;2024-01-10T08:26:35;4.87;;;3.23;;
16792;SDS011;8513;42.662;23.350;2024-01-10T08:29:02;4.23;;;3.00;;
16792;SDS011;8513;42.662;23.350;2024-01-10T08:31:28;5.50;;;2.73;;
16792;SDS011;8513;42.662;23.350;2024-01-10T08:33:54;4.13;;;2.50;;
16792;SDS011;8513;42.662;23.350;2024-01-10T08:36:19;3.40;;;2.70;;
16792;SDS011;8513;42.662;23.350;2024-01-10T08:38:45;4.00;;;2.20;;
16792;SDS011;8513;42.662;23.350;2024-01-10T08:41:11;4.60;;;2.57;;
16792;SDS011;8513;42.662;23.350;2024-01-10T08:43:37;2.60;;;2.40;;
16792;SDS011;8513;42.662;23.350;2024-01-10T08:46:03;3.20;;;2.40;;
16792;SDS011;8513;42.662;23.350;2024-01-10T08:48:29;3.37;;;2.53;;
16792;SDS011;8513;42.662;23.350;2024-01-10T08:50:54;6.50;;;4.83;;
16792;SDS011;8513;42.662;23.350;2024-01-10T08:53:21;4.10;;;2.50;;
16792;SDS011;8513;42.662;23.350;2024-01-10T08:55:47;3.63;;;2.77;;
16792;SDS011;8513;42.662;23.350;2024-01-10T08:58:13;3.63;;;2.70;;
16792;SDS011;8513;42.662;23.350;2024-01-10T09:00:38;4.33;;;2.60;;
16792;SDS011;8513;42.662;23.350;2024-01-10T09:03:04;4.70;;;3.57;;
16792;SDS011;8513;42.662;23.350;2024-01-10T09:05:29;4.83;;;3.40;;
16792;SDS011;8513;42.662;23.350;2024-01-10T09:07:55;5.23;;;3.10;;
16792;SDS011;8513;42.662;23.350;2024-01-10T09:10:20;4.87;;;3.30;;
16792;SDS011;8513;42.662;23.350;2024-01-10T09:12:49;4.77;;;2.73;;
16792;SDS011;8513;42.662;23.350;2024-01-10T09:15:14;5.63;;;3.47;;
16792;SDS011;8513;42.662;23.350;2024-01-10T09:17:43;4.50;;;3.23;;
16792;SDS011;8513;42.662;23.350;2024-01-10T09:20:10;4.63;;;3.40;;
16792;SDS011;8513;42.662;23.350;2024-01-10T09:22:36;8.20;;;3.70;;
16792;SDS011;8513;42.662;23.350;2024-01-10T09:25:03;6.13;;;3.80;;
16792;SDS011;8513;42.662;23.350;2024-01-10T09:27:32;6.53;;;3.97;;
16792;SDS011;8513;42.662;23.350;2024-01-10T09:30:01;5.00;;;3.57;;
16792;SDS011;8513;42.662;23.350;2024-01-10T09:32:28;8.50;;;4.73;;
16792;SDS011;8513;42.662;23.350;2024-01-10T09:34:56;5.87;;;4.00;;
16792;SDS011;8513;42.662;23.350;2024-01-10T09:37:23;8.63;;;4.50;;
16792;SDS011;8513;42.662;23.350;2024-01-10T09:39:48;6.17;;;4.23;;
16792;SDS011;8513;42.662;23.350;2024-01-10T09:42:14;5.83;;;4.20;;
16792;SDS011;8513;42.662;23.350;2024-01-10T09:44:40;12.83;;;4.80;;
16792;SDS011;8513;42.662;23.350;2024-01-10T09:47:06;5.10;;;4.10;;
16792;SDS011;8513;42.662;23.350;2024-01-10T09:49:32;8.13;;;4.50;;
16792;SDS011;8513;42.662;23.350;2024-01-10T09:51:59;6.40;;;5.37;;
16792;SDS011;8513;42.662;23.350;2024-01-10T09:54:26;5.40;;;4.17;;
16792;SDS011;8513;42.662;23.350;2024-01-10T09:56:54;8.43;;;4.30;;
16792;SDS011;8513;42.662;23.350;2024-01-10T09:59:20;8.47;;;4.70;;
16792;SDS011;8513;42.662;23.350;2024-01-10T10:01:46;5.27;;;4.10;;
16792;SDS011;8513;42.662;23.350;2024-01-10T10:04:12;5.87;;;4.03;;
16792;SDS011;8513;42.662;23.350;2024-01-10T10:06:38;7.37;;;4.63;;
16792;SDS011;8513;42.662;23.350;2024-01-10T10:09:03;8.50;;;5.60;;
16792;SDS011;8513;42.662;23.350;2024-01-10T10:11:29;9.47;;;5.17;;
16792;SDS011;8513;42.662;23.350;2024-01-10T10:13:55;7.63;;;4.97;;
16792;SDS011;8513;42.662;23.350;2024-01-10T10:16:24;6.83;;;4.53;;
16792;SDS011;8513;42.662;23.350;2024-01-10T10:18:51;8.23;;;5.67;;
16792;SDS011;8513;42.662;23.350;2024-01-10T10:21:23;12.87;;;6.00;;
16792;SDS011;8513;42.662;23.350;2024-01-10T10:23:57;6.97;;;4.73;;
16792;SDS011;8513;42.662;23.350;2024-01-10T10:26:24;7.73;;;5.07;;
16792;SDS011;8513;42.662;23.350;2024-01-10T10:28:52;10.17;;;5.73;;
16792;SDS011;8513;42.662;23.350;2024-01-10T10:31:18;7.83;;;5.43;;
16792;SDS011;8513;42.662;23.350;2024-01-10T10:33:55;6.53;;;5.17;;
16792;SDS011;8513;42.662;23.350;2024-01-10T10:36:22;8.10;;;5.57;;
16792;SDS011;8513;42.662;23.350;2024-01-10T10:38:47;7.27;;;5.53;;
16792;SDS011;8513;42.662;23.350;2024-01-10T10:41:14;10.13;;;6.10;;
16792;SDS011;8513;42.662;23.350;2024-01-10T10:43:40;8.83;;;6.00;;
16792;SDS011;8513;42.662;23.350;2024-01-10T10:46:06;7.67;;;5.67;;
16792;SDS011;8513;42.662;23.350;2024-01-10T10:48:34;9.77;;;6.00;;
16792;SDS011;8513;42.662;23.350;2024-01-10T10:53:33;10.90;;;6.07;;
16792;SDS011;8513;42.662;23.350;2024-01-10T10:56:01;9.60;;;5.60;;
16792;SDS011;8513;42.662;23.350;2024-01-10T10:58:29;10.97;;;6.83;;
16792;SDS011;8513;42.662;23.350;2024-01-10T11:01:06;16.53;;;7.43;;
16792;SDS011;8513;42.662;23.350;2024-01-10T11:03:34;6.83;;;6.03;;
16792;SDS011;8513;42.662;23.350;2024-01-10T11:06:02;9.47;;;6.10;;
16792;SDS011;8513;42.662;23.350;2024-01-10T11:08:29;10.53;;;7.60;;
16792;SDS011;8513;42.662;23.350;2024-01-10T11:10:59;13.13;;;7.37;;
16792;SDS011;8513;42.662;23.350;2024-01-10T11:13:28;9.23;;;7.17;;
16792;SDS011;8513;42.662;23.350;2024-01-10T11:25:23;11.47;;;7.37;;
16792;SDS011;8513;42.662;23.350;2024-01-10T11:27:54;12.23;;;7.37;;
16792;SDS011;8513;42.662;23.350;2024-01-10T11:30:35;11.17;;;7.23;;
16792;SDS011;8513;42.662;23.350;2024-01-10T11:33:23;11.43;;;7.77;;
16792;SDS011;8513;42.662;23.350;2024-01-10T11:41:19;11.13;;;7.73;;
16792;SDS011;8513;42.662;23.350;2024-01-10T11:46:37;12.33;;;7.93;;
16792;SDS011;8513;42.662;23.350;2024-01-10T11:49:03;12.63;;;7.93;;
16792;SDS011;8513;42.662;23.350;2024-01-10T11:51:31;15.23;;;8.50;;
16792;SDS011;8513;42.662;23.350;2024-01-10T11:53:57;10.83;;;8.10;;
16792;SDS011;8513;42.662;23.350;2024-01-10T11:56:23;11.57;;;8.20;;
16792;SDS011;8513;42.662;23.350;2024-01-10T11:59:08;12.07;;;8.33;;
16792;SDS011;8513;42.662;23.350;2024-01-10T12:01:38;10.37;;;7.63;;
16792;SDS011;8513;42.662;23.350;2024-01-10T12:04:05;11.97;;;7.90;;
16792;SDS011;8513;42.662;23.350;2024-01-10T12:06:31;11.83;;;8.63;;
16792;SDS011;8513;42.662;23.350;2024-01-10T12:08:57;13.80;;;8.10;;
16792;SDS011;8513;42.662;23.350;2024-01-10T12:11:24;11.87;;;8.03;;
16792;SDS011;8513;42.662;23.350;2024-01-10T12:13:50;13.93;;;8.97;;
16792;SDS011;8513;42.662;23.350;2024-01-10T12:16:16;11.37;;;9.20;;
16792;SDS011;8513;42.662;23.350;2024-01-10T12:18:42;13.53;;;9.07;;
16792;SDS011;8513;42.662;23.350;2024-01-10T12:21:08;14.90;;;8.80;;
16792;SDS011;8513;42.662;23.350;2024-01-10T12:23:35;15.80;;;12.43;;
16792;SDS011;8513;42.662;23.350;2024-01-10T12:26:02;16.03;;;10.40;;
16792;SDS011;8513;42.662;23.350;2024-01-10T12:28:29;13.13;;;9.13;;
16792;SDS011;8513;42.662;23.350;2024-01-10T12:30:55;13.47;;;9.80;;
16792;SDS011;8513;42.662;23.350;2024-01-10T12:33:22;15.03;;;9.20;;
16792;SDS011;8513;42.662;23.350;2024-01-10T12:36:01;12.43;;;8.70;;
16792;SDS011;8513;42.662;23.350;2024-01-10T12:38:32;11.67;;;9.03;;
16792;SDS011;8513;42.662;23.350;2024-01-10T12:40:58;15.10;;;9.63;;
16792;SDS011;8513;42.662;23.350;2024-01-10T12:43:24;11.93;;;9.17;;
16792;SDS011;8513;42.662;23.350;2024-01-10T12:46:07;14.60;;;9.50;;
16792;SDS011;8513;42.662;23.350;2024-01-10T12:48:36;14.60;;;9.40;;
16792;SDS011;8513;42.662;23.350;2024-01-10T12:51:05;16.03;;;11.00;;
16792;SDS011;8513;42.662;23.350;2024-01-10T12:53:34;15.97;;;10.43;;
16792;SDS011;8513;42.662;23.350;2024-01-10T12:56:02;13.17;;;9.10;;
16792;SDS011;8513;42.662;23.350;2024-01-10T12:58:28;11.53;;;8.63;;
16792;SDS011;8513;42.662;23.350;2024-01-10T13:00:54;12.83;;;9.10;;
16792;SDS011;8513;42.662;23.350;2024-01-10T13:03:20;11.33;;;9.53;;
16792;SDS011;8513;42.662;23.350;2024-01-10T13:05:46;13.10;;;10.10;;
16792;SDS011;8513;42.662;23.350;2024-01-10T13:08:12;14.03;;;10.50;;
16792;SDS011;8513;42.662;23.350;2024-01-10T13:10:38;18.53;;;13.90;;
16792;SDS011;8513;42.662;23.350;2024-01-10T13:13:03;17.40;;;10.97;;
16792;SDS011;8513;42.662;23.350;2024-01-10T13:15:29;14.67;;;11.07;;
16792;SDS011;8513;42.662;23.350;2024-01-10T13:17:55;12.57;;;10.13;;
16792;SDS011;8513;42.662;23.350;2024-01-10T13:20:22;15.23;;;9.77;;
16792;SDS011;8513;42.662;23.350;2024-01-10T13:22:49;14.47;;;10.07;;
16792;SDS011;8513;42.662;23.350;2024-01-10T13:25:17;14.20;;;10.67;;
16792;SDS011;8513;42.662;23.350;2024-01-10T13:27:43;15.20;;;10.87;;
16792;SDS011;8513;42.662;23.350;2024-01-10T13:30:08;16.93;;;11.17;;
16792;SDS011;8513;42.662;23.350;2024-01-10T13:32:36;15.80;;;11.23;;
16792;SDS011;8513;42.662;23.350;2024-01-10T13:35:02;15.53;;;11.93;;
16792;SDS011;8513;42.662;23.350;2024-01-10T13:37:31;15.60;;;11.10;;
16792;SDS011;8513;42.662;23.350;2024-01-10T13:39:57;18.03;;;11.70;;
16792;SDS011;8513;42.662;23.350;2024-01-10T13:42:23;16.37;;;11.87;;
16792;SDS011;8513;42.662;23.350;2024-01-10T13:44:49;17.43;;;11.50;;
16792;SDS011;8513;42.662;23.350;2024-01-10T13:47:17;14.40;;;11.27;;
16792;SDS011;8513;42.662;23.350;2024-01-10T13:49:43;21.90;;;11.77;;
16792;SDS011;8513;42.662;23.350;2024-01-10T13:52:08;14.27;;;11.03;;
16792;SDS011;8513;42.662;23.350;2024-01-10T13:54:34;18.57;;;12.27;;
16792;SDS011;8513;42.662;23.350;2024-01-10T13:56:59;17.43;;;12.60;;
16792;SDS011;8513;42.662;23.350;2024-01-10T13:59:25;15.33;;;11.50;;
16792;SDS011;8513;42.662;23.350;2024-01-10T14:01:50;17.90;;;11.43;;
16792;SDS011;8513;42.662;23.350;2024-01-10T14:04:15;15.93;;;11.50;;
16792;SDS011;8513;42.662;23.350;2024-01-10T14:06:48;16.40;;;11.47;;
16792;SDS011;8513;42.662;23.350;2024-01-10T14:09:14;21.27;;;11.63;;
16792;SDS011;8513;42.662;23.350;2024-01-10T14:11:39;18.30;;;11.50;;
16792;SDS011;8513;42.662;23.350;2024-01-10T14:14:05;18.33;;;11.53;;
16792;SDS011;8513;42.662;23.350;2024-01-10T14:16:30;19.10;;;12.23;;
16792;SDS011;8513;42.662;23.350;2024-01-10T14:18:55;18.67;;;10.60;;
16792;SDS011;8513;42.662;23.350;2024-01-10T14:21:21;19.50;;;11.90;;
16792;SDS011;8513;42.662;23.350;2024-01-10T14:23:47;18.10;;;11.67;;
16792;SDS011;8513;42.662;23.350;2024-01-10T14:26:14;19.20;;;12.43;;
16792;SDS011;8513;42.662;23.350;2024-01-10T14:28:40;25.47;;;12.20;;
16792;SDS011;8513;42.662;23.350;2024-01-10T14:31:05;17.37;;;11.90;;
16792;SDS011;8513;42.662;23.350;2024-01-10T14:33:31;16.57;;;11.27;;
16792;SDS011;8513;42.662;23.350;2024-01-10T14:35:57;18.23;;;11.73;;
16792;SDS011;8513;42.662;23.350;2024-01-10T14:38:24;20.23;;;12.30;;
16792;SDS011;8513;42.662;23.350;2024-01-10T14:40:49;23.80;;;15.00;;
16792;SDS011;8513;42.662;23.350;2024-01-10T14:43:14;23.90;;;12.97;;
16792;SDS011;8513;42.662;23.350;2024-01-10T14:45:40;21.63;;;12.57;;
16792;SDS011;8513;42.662;23.350;2024-01-10T14:48:05;22.97;;;11.80;;
16792;SDS011;8513;42.662;23.350;2024-01-10T14:50:32;18.83;;;12.43;;
16792;SDS011;8513;42.662;23.350;2024-01-10T14:52:57;21.17;;;13.27;;
16792;SDS011;8513;42.662;23.350;2024-01-10T14:55:23;22.20;;;13.57;;
16792;SDS011;8513;42.662;23.350;2024-01-10T14:57:53;20.60;;;13.40;;
16792;SDS011;8513;42.662;23.350;2024-01-10T15:00:19;19.73;;;13.67;;
16792;SDS011;8513;42.662;23.350;2024-01-10T15:02:44;21.13;;;13.57;;
16792;SDS011;8513;42.662;23.350;2024-01-10T15:05:10;20.60;;;13.87;;
16792;SDS011;8513;42.662;23.350;2024-01-10T15:07:36;22.03;;;13.50;;